createdAt,value
2017-09-11T00:00:48.401Z,72.30
2017-09-11T00:03:14.595Z,72.70
2017-09-11T00:05:41.518Z,74.10
2017-09-11T00:08:08.557Z,73.40
2017-09-11T00:10:34.702Z,72.60
2017-09-11T00:13:01.901Z,72.30
2017-09-11T00:15:28.023Z,72.50
2017-09-11T00:17:54.211Z,72.80
2017-09-11T00:20:20.333Z,72.30
2017-09-11T00:22:46.606Z,72.90
2017-09-11T00:25:13.687Z,72.30
2017-09-11T00:27:39.862Z,72.90
2017-09-11T00:30:06.833Z,73.30
2017-09-11T00:32:32.987Z,72.70
2017-09-11T00:34:59.561Z,72.30
2017-09-11T00:37:27.496Z,72.00
2017-09-11T00:39:56.634Z,71.90
2017-09-11T00:42:23.569Z,72.90
2017-09-11T00:44:49.775Z,72.10
2017-09-11T00:47:15.993Z,72.50
2017-09-11T00:49:43.282Z,72.10
2017-09-11T00:52:09.513Z,71.70
2017-09-11T00:54:36.187Z,72.30
2017-09-11T00:57:03.330Z,71.60
2017-09-11T00:59:29.538Z,71.40
2017-09-11T01:01:58.866Z,72.00
2017-09-11T01:04:27.011Z,71.10
2017-09-11T01:06:53.266Z,71.00
2017-09-11T01:09:19.423Z,71.00
2017-09-11T01:11:45.739Z,71.00
2017-09-11T01:14:12.967Z,71.00
2017-09-11T01:16:39.954Z,71.00
2017-09-11T01:19:07.935Z,70.90
2017-09-11T01:21:34.104Z,71.50
2017-09-11T01:24:00.338Z,71.10
2017-09-11T01:26:26.619Z,71.20
2017-09-11T01:28:52.817Z,71.60
2017-09-11T01:31:21.042Z,70.80
2017-09-11T01:33:48.162Z,71.40
2017-09-11T01:36:14.327Z,71.50
2017-09-11T01:38:40.531Z,71.00
2017-09-11T01:41:06.746Z,71.60
2017-09-11T01:43:32.894Z,71.30
2017-09-11T01:45:59.083Z,71.50
2017-09-11T01:48:25.622Z,71.50
2017-09-11T01:50:51.815Z,71.80
2017-09-11T01:53:18.745Z,73.20
2017-09-11T01:55:45.720Z,73.00
2017-09-11T01:58:12.955Z,73.00
2017-09-11T02:00:39.870Z,72.80
2017-09-11T02:03:06.031Z,72.80
2017-09-11T02:05:32.966Z,72.20
2017-09-11T02:07:59.113Z,72.70
2017-09-11T02:10:26.086Z,73.00
2017-09-11T02:12:52.281Z,73.00
2017-09-11T02:15:20.310Z,73.20
2017-09-11T02:17:47.156Z,72.50
2017-09-11T02:20:13.971Z,73.10
2017-09-11T02:22:40.202Z,73.20
2017-09-11T02:25:06.395Z,73.10
2017-09-11T02:27:35.957Z,73.10
2017-09-11T02:30:03.762Z,73.00
2017-09-11T02:32:29.961Z,72.50
2017-09-11T02:34:56.191Z,73.10
2017-09-11T02:37:22.555Z,72.80
2017-09-11T02:39:49.413Z,71.80
2017-09-11T02:42:16.315Z,71.50
2017-09-11T02:44:43.274Z,71.30
2017-09-11T02:47:09.482Z,71.10
2017-09-11T02:49:35.673Z,71.00
2017-09-11T02:52:01.866Z,71.60
2017-09-11T02:54:30.373Z,71.20
2017-09-11T02:56:57.290Z,71.10
2017-09-11T02:59:24.770Z,71.00
2017-09-11T03:01:51.750Z,71.90
2017-09-11T03:04:17.937Z,71.30
2017-09-11T03:06:44.852Z,71.30
2017-09-11T03:09:11.015Z,70.70
2017-09-11T03:11:38.878Z,71.30
2017-09-11T03:14:05.025Z,72.20
2017-09-11T03:16:31.918Z,71.30
2017-09-11T03:18:58.054Z,71.20
2017-09-11T03:21:24.275Z,70.90
2017-09-11T03:23:50.536Z,71.60
2017-09-11T03:26:18.223Z,71.50
2017-09-11T03:28:45.180Z,71.60
2017-09-11T03:31:11.382Z,71.60
2017-09-11T03:33:38.323Z,71.50
2017-09-11T03:36:06.253Z,72.00
2017-09-11T03:38:32.442Z,71.70
2017-09-11T03:40:59.354Z,71.60
2017-09-11T03:43:26.518Z,71.60
2017-09-11T03:45:52.678Z,71.10
2017-09-11T03:48:18.844Z,71.70
2017-09-11T03:50:45.013Z,71.70
2017-09-11T03:53:11.888Z,71.80
2017-09-11T03:55:39.146Z,71.70
2017-09-11T03:58:05.906Z,71.20
2017-09-11T04:00:32.125Z,71.60
2017-09-11T04:02:58.325Z,71.70
2017-09-11T04:05:25.806Z,71.70
2017-09-11T04:07:52.020Z,72.30
2017-09-11T04:10:18.208Z,72.00
2017-09-11T04:12:45.147Z,72.20
2017-09-11T04:15:12.069Z,71.80
2017-09-11T04:17:38.283Z,71.80
2017-09-11T04:20:04.459Z,71.60
2017-09-11T04:22:31.381Z,72.00
2017-09-11T04:24:58.280Z,72.10
2017-09-11T04:27:24.498Z,71.80
2017-09-11T04:29:51.417Z,73.20
2017-09-11T04:32:18.158Z,73.20
2017-09-11T04:34:44.334Z,74.40
2017-09-11T04:37:10.479Z,73.60
2017-09-11T04:39:37.046Z,74.20
2017-09-11T04:42:03.624Z,74.70
2017-09-11T04:44:29.858Z,75.30
2017-09-11T04:46:56.006Z,75.50
2017-09-11T04:49:22.780Z,76.10
2017-09-11T04:51:48.954Z,76.80
2017-09-11T04:54:15.145Z,77.00
2017-09-11T04:56:42.036Z,77.30
2017-09-11T04:59:08.218Z,77.20
2017-09-11T05:01:35.169Z,77.30
2017-09-11T05:04:02.063Z,77.90
2017-09-11T05:06:28.219Z,78.30
2017-09-11T05:08:55.144Z,79.10
2017-09-11T05:11:21.303Z,79.10
2017-09-11T05:13:48.310Z,80.20
2017-09-11T05:16:14.475Z,79.40
2017-09-11T05:18:41.755Z,79.60
2017-09-11T05:21:07.902Z,79.80
2017-09-11T05:23:34.107Z,80.10
2017-09-11T05:26:01.070Z,80.60
2017-09-11T05:28:27.220Z,80.80
2017-09-11T05:30:53.443Z,80.60
2017-09-11T05:33:19.913Z,81.00
2017-09-11T05:35:46.917Z,81.70
2017-09-11T05:38:13.133Z,81.20
2017-09-11T05:40:39.291Z,82.00
2017-09-11T05:43:05.466Z,81.40
2017-09-11T05:45:32.424Z,82.30
2017-09-11T05:47:59.327Z,82.80
2017-09-11T05:50:25.518Z,82.80
2017-09-11T05:52:51.683Z,82.50
2017-09-11T05:55:17.943Z,82.60
2017-09-11T06:00:12.727Z,83.70
2017-09-11T06:02:38.885Z,83.60
2017-09-11T06:05:05.822Z,83.80
2017-09-11T06:07:32.748Z,83.70
2017-09-11T06:09:58.909Z,83.50
2017-09-11T06:12:25.813Z,83.60
2017-09-11T06:14:52.021Z,83.10
2017-09-11T06:17:18.263Z,83.70
2017-09-11T06:19:44.834Z,83.60
2017-09-11T06:22:11.007Z,84.20
2017-09-11T06:24:37.163Z,84.50
2017-09-11T06:27:03.363Z,84.50
2017-09-11T06:29:31.679Z,84.60
2017-09-11T06:31:57.908Z,84.10
2017-09-11T06:34:24.194Z,84.60
2017-09-11T06:36:50.447Z,83.70
2017-09-11T06:39:16.662Z,84.40
2017-09-11T06:41:42.834Z,84.20
2017-09-11T06:44:09.086Z,84.80
2017-09-11T06:46:36.048Z,84.50
2017-09-11T06:49:02.252Z,84.50
2017-09-11T06:51:29.194Z,84.50
2017-09-11T06:53:56.096Z,85.60
2017-09-11T06:56:22.251Z,84.80
2017-09-11T06:58:48.471Z,84.50
2017-09-11T07:01:14.695Z,83.80
2017-09-11T07:03:40.841Z,84.30
2017-09-11T07:06:07.050Z,84.50
2017-09-11T07:08:33.243Z,84.60
2017-09-11T07:10:59.502Z,84.30
2017-09-11T07:13:33.694Z,84.30
2017-09-11T07:15:59.884Z,83.70
2017-09-11T07:18:26.813Z,84.80
2017-09-11T07:20:52.994Z,84.70
2017-09-11T07:23:19.210Z,84.90
2017-09-11T07:25:45.383Z,85.10
2017-09-11T07:28:11.557Z,85.00
2017-09-11T07:30:38.482Z,84.70
2017-09-11T07:33:06.312Z,84.70
2017-09-11T07:35:32.520Z,84.70
2017-09-11T07:37:58.717Z,85.20
2017-09-11T07:40:25.659Z,84.80
2017-09-11T07:42:52.596Z,85.80
2017-09-11T07:45:19.532Z,85.20
2017-09-11T07:47:45.756Z,85.20
2017-09-11T07:50:11.940Z,85.20
2017-09-11T07:52:38.142Z,84.70
2017-09-11T07:55:05.083Z,85.90
2017-09-11T07:57:31.968Z,85.30
2017-09-11T07:59:58.189Z,85.20
2017-09-11T08:02:24.363Z,86.30
2017-09-11T08:04:50.598Z,85.60
2017-09-11T08:07:17.482Z,85.50
2017-09-11T08:09:43.638Z,85.60
2017-09-11T08:12:09.833Z,85.70
2017-09-11T08:14:36.041Z,85.10
2017-09-11T08:17:02.947Z,85.80
2017-09-11T08:19:29.491Z,85.50
2017-09-11T08:21:56.155Z,85.60
2017-09-11T08:24:22.863Z,85.60
2017-09-11T08:26:49.046Z,86.80
2017-09-11T08:29:15.206Z,85.70
2017-09-11T08:31:41.404Z,88.10
2017-09-11T08:34:07.582Z,87.10
2017-09-11T08:36:33.783Z,86.30
2017-09-11T08:39:00.816Z,86.80
2017-09-11T08:41:27.021Z,86.80
2017-09-11T08:43:53.204Z,86.10
2017-09-11T08:46:19.373Z,87.50
2017-09-11T08:48:46.311Z,86.20
2017-09-11T08:51:12.517Z,86.00
2017-09-11T08:53:38.657Z,85.30
2017-09-11T08:56:04.853Z,85.40
2017-09-11T08:58:31.086Z,85.50
2017-09-11T09:00:57.272Z,86.10
2017-09-11T09:03:23.446Z,86.20
2017-09-11T09:05:49.608Z,85.40
2017-09-11T09:08:15.817Z,85.70
2017-09-11T09:10:41.958Z,86.30
2017-09-11T09:13:09.862Z,85.40
2017-09-11T09:15:36.043Z,85.50
2017-09-11T09:18:02.293Z,84.80
2017-09-11T09:20:44.974Z,84.60
2017-09-11T09:23:14.006Z,84.60
2017-09-11T09:25:40.926Z,84.40
2017-09-11T09:28:07.105Z,82.50
2017-09-11T09:30:33.304Z,83.00
2017-09-11T09:32:59.502Z,81.60
2017-09-11T09:35:25.705Z,81.30
2017-09-11T09:37:52.194Z,81.80
2017-09-11T09:40:19.112Z,81.00
2017-09-11T09:42:45.387Z,81.00
2017-09-11T09:45:12.333Z,79.30
2017-09-11T09:47:39.246Z,79.80
2017-09-11T09:50:06.147Z,79.60
2017-09-11T09:52:32.325Z,79.60
2017-09-11T09:55:00.054Z,76.50
2017-09-11T09:57:26.233Z,76.40
2017-09-11T09:59:53.138Z,75.70
2017-09-11T10:02:19.342Z,71.90
2017-09-11T10:04:45.539Z,71.80
2017-09-11T10:07:12.487Z,69.30
2017-09-11T10:09:39.390Z,70.50
2017-09-11T10:12:06.499Z,70.50
2017-09-11T10:14:33.397Z,70.40
2017-09-11T10:16:59.603Z,68.20
2017-09-11T10:19:25.767Z,68.80
2017-09-11T10:21:51.954Z,67.80
2017-09-11T10:24:18.117Z,68.00
2017-09-11T10:26:44.273Z,66.70
2017-09-11T10:29:10.466Z,65.00
2017-09-11T10:31:36.679Z,64.90
2017-09-11T10:34:02.835Z,60.70
2017-09-11T10:36:29.974Z,60.50
2017-09-11T10:38:57.691Z,58.40
2017-09-11T10:41:24.086Z,57.20
2017-09-11T10:43:50.294Z,56.50
2017-09-11T10:46:16.501Z,54.50
2017-09-11T10:48:42.695Z,53.80
2017-09-11T10:51:08.859Z,53.30
2017-09-11T10:53:36.694Z,50.00
2017-09-11T10:56:02.867Z,50.60
2017-09-11T10:58:29.062Z,50.90
2017-09-11T11:00:55.212Z,49.60
2017-09-11T11:03:23.160Z,51.50
2017-09-11T11:05:49.856Z,52.10
2017-09-11T11:08:15.994Z,50.70
2017-09-11T11:10:45.223Z,47.40
2017-09-11T11:13:11.514Z,45.00
2017-09-11T11:15:38.454Z,43.00
2017-09-11T11:18:05.074Z,42.90
2017-09-11T11:20:31.280Z,42.60
2017-09-11T11:22:57.422Z,43.70
2017-09-11T11:25:24.316Z,44.60
2017-09-11T11:27:52.538Z,43.30
2017-09-11T11:30:18.693Z,43.70
2017-09-11T11:32:44.903Z,43.60
2017-09-11T11:35:11.075Z,42.70
2017-09-11T11:37:38.014Z,43.90
2017-09-11T11:40:04.911Z,45.50
2017-09-11T11:42:31.056Z,48.20
2017-09-11T11:54:42.241Z,54.00
2017-09-11T11:57:09.188Z,53.90
2017-09-11T11:59:35.367Z,50.50
2017-09-11T12:02:03.303Z,51.20
2017-09-11T12:04:30.482Z,49.20
2017-09-11T12:06:59.344Z,46.60
2017-09-11T12:09:25.488Z,45.90
2017-09-11T12:11:51.677Z,44.10
2017-09-11T12:14:18.596Z,41.70
2017-09-11T12:16:44.793Z,41.70
2017-09-11T12:19:12.077Z,40.40
2017-09-11T12:21:38.275Z,40.20
2017-09-11T12:24:04.454Z,36.90
2017-09-11T12:26:31.354Z,37.70
2017-09-11T12:28:57.586Z,37.70
2017-09-11T12:31:23.783Z,37.80
2017-09-11T12:33:50.003Z,36.40
2017-09-11T12:36:16.167Z,35.40
2017-09-11T12:38:42.350Z,35.00
2017-09-11T12:41:09.518Z,37.50
2017-09-11T12:43:35.726Z,37.60
2017-09-11T12:46:02.647Z,40.10
2017-09-11T12:48:28.801Z,41.50
2017-09-11T12:50:56.312Z,43.00
2017-09-11T12:53:22.511Z,44.50
2017-09-11T12:55:49.410Z,46.60
2017-09-11T12:58:15.595Z,47.50
2017-09-11T13:00:43.170Z,48.10
2017-09-11T13:03:10.095Z,47.80
2017-09-11T13:05:37.515Z,47.80
2017-09-11T13:08:04.504Z,48.80
2017-09-11T13:10:31.806Z,49.60
2017-09-11T13:12:57.969Z,46.10
2017-09-11T13:15:24.155Z,43.60
2017-09-11T13:17:51.703Z,44.00
2017-09-11T13:20:19.080Z,41.70
2017-09-11T13:22:47.965Z,41.50
2017-09-11T13:25:15.333Z,37.70
2017-09-11T13:27:42.284Z,39.20
2017-09-11T13:30:09.290Z,39.90
2017-09-11T13:32:35.488Z,39.00
2017-09-11T13:35:01.980Z,39.30
2017-09-11T13:37:28.118Z,45.90
2017-09-11T13:39:55.162Z,39.00
2017-09-11T13:42:23.453Z,40.70
2017-09-11T13:44:50.657Z,39.70
2017-09-11T13:47:17.214Z,38.70
2017-09-11T13:49:43.337Z,37.90
2017-09-11T13:52:11.592Z,38.20
2017-09-11T13:54:38.525Z,39.70
2017-09-11T13:57:05.695Z,40.10
2017-09-11T13:59:32.885Z,39.00
2017-09-11T14:01:59.897Z,40.60
2017-09-11T14:04:27.369Z,40.60
2017-09-11T14:06:54.602Z,40.10
2017-09-11T14:09:20.818Z,39.50
2017-09-11T14:11:46.978Z,40.20
2017-09-11T14:14:13.225Z,40.40
2017-09-11T14:16:40.197Z,40.20
2017-09-11T14:19:06.406Z,39.80
2017-09-11T14:21:33.363Z,40.90
2017-09-11T14:24:01.628Z,40.00
2017-09-11T14:26:28.563Z,40.20
2017-09-11T14:28:55.449Z,39.30
2017-09-11T14:31:21.633Z,38.50
2017-09-11T14:33:49.583Z,40.00
2017-09-11T14:36:16.547Z,40.10
2017-09-11T14:38:42.687Z,63.90
2017-09-11T14:41:09.244Z,41.20
2017-09-11T14:43:35.805Z,42.30
2017-09-11T14:46:02.077Z,42.90
2017-09-11T14:48:29.134Z,43.00
2017-09-11T14:50:55.325Z,45.20
2017-09-11T14:53:22.681Z,45.50
2017-09-11T14:55:50.339Z,44.20
2017-09-11T14:58:17.732Z,46.00
2017-09-11T15:00:43.936Z,45.40
2017-09-11T15:03:10.436Z,45.40
2017-09-11T15:05:36.641Z,46.00
2017-09-11T15:08:03.163Z,45.30
2017-09-11T15:10:32.811Z,47.00
2017-09-11T15:12:59.456Z,47.70
2017-09-11T15:15:26.679Z,47.90
2017-09-11T15:17:53.873Z,47.30
2017-09-11T15:20:20.317Z,47.50
2017-09-11T15:25:15.179Z,47.80
2017-09-11T15:27:41.766Z,46.20
2017-09-11T15:30:08.480Z,48.00
2017-09-11T15:32:35.954Z,49.00
2017-09-11T15:35:04.330Z,50.80
2017-09-11T15:37:30.522Z,52.00
2017-09-11T15:39:58.304Z,52.60
2017-09-11T15:42:24.490Z,52.80
2017-09-11T15:44:50.729Z,52.70
2017-09-11T15:47:17.633Z,53.30
2017-09-11T15:49:43.903Z,54.60
2017-09-11T15:52:11.198Z,56.40
2017-09-11T15:54:37.395Z,56.20
2017-09-11T15:57:04.767Z,57.10
2017-09-11T15:59:31.079Z,58.00
2017-09-11T16:01:58.029Z,59.70
2017-09-11T16:04:24.943Z,59.10
2017-09-11T16:06:51.131Z,59.10
2017-09-11T16:09:17.356Z,59.40
2017-09-11T16:11:43.584Z,60.20
2017-09-11T16:14:09.767Z,60.50
2017-09-11T16:16:36.734Z,62.50
2017-09-11T16:19:03.719Z,63.50
2017-09-11T16:21:29.914Z,62.80
2017-09-11T16:23:56.897Z,64.70
2017-09-11T16:26:23.151Z,66.10
2017-09-11T16:28:49.436Z,66.10
2017-09-11T16:31:15.653Z,67.30
2017-09-11T16:33:42.607Z,67.30
2017-09-11T16:36:46.364Z,66.70
2017-09-11T16:39:12.592Z,66.40
2017-09-11T16:41:38.805Z,67.60
2017-09-11T16:44:05.003Z,67.70
2017-09-11T16:46:31.928Z,67.20
2017-09-11T16:48:58.869Z,67.90
2017-09-11T16:51:26.126Z,68.20
2017-09-11T16:53:52.329Z,68.00
2017-09-11T16:56:18.491Z,68.90
2017-09-11T16:58:45.466Z,69.80
2017-09-11T17:01:11.652Z,68.40
2017-09-11T17:03:37.889Z,69.10
2017-09-11T17:06:04.830Z,68.50
2017-09-11T17:08:32.017Z,70.40
2017-09-11T17:10:58.239Z,69.60
2017-09-11T17:13:25.280Z,70.60
2017-09-11T17:15:52.235Z,70.30
2017-09-11T17:18:18.838Z,69.90
2017-09-11T17:20:45.071Z,71.10
2017-09-11T17:23:12.109Z,70.90
2017-09-11T17:25:38.327Z,70.70
2017-09-11T17:28:04.535Z,71.50
2017-09-11T17:30:30.748Z,70.70
2017-09-11T17:32:56.964Z,71.80
2017-09-11T17:35:23.637Z,72.40
2017-09-11T17:37:49.875Z,70.50
2017-09-11T17:40:16.103Z,81.90
2017-09-11T17:42:42.294Z,72.00
2017-09-11T17:45:10.070Z,71.70
2017-09-11T17:47:37.035Z,70.70
2017-09-11T17:50:04.259Z,77.10
2017-09-11T17:52:30.463Z,73.30
2017-09-11T17:54:57.746Z,71.60
2017-09-11T17:57:24.798Z,72.20
2017-09-11T17:59:51.713Z,71.60
2017-09-11T18:02:19.325Z,72.40
2017-09-11T18:05:00.814Z,72.10
2017-09-11T18:07:27.048Z,72.80
2017-09-11T18:09:54.380Z,72.50
2017-09-11T18:12:20.657Z,72.70
2017-09-11T18:17:14.797Z,73.90
2017-09-11T18:19:41.023Z,73.40
2017-09-11T18:22:11.054Z,74.00
2017-09-11T18:24:37.286Z,73.70
2017-09-11T18:27:04.423Z,73.80
2017-09-11T18:29:32.136Z,74.80
2017-09-11T18:31:58.694Z,74.00
2017-09-11T18:34:25.508Z,75.40
2017-09-11T18:36:53.236Z,75.70
2017-09-11T18:39:19.792Z,74.60
2017-09-11T18:44:14.317Z,74.50
2017-09-11T18:46:40.911Z,74.80
2017-09-11T18:49:07.555Z,75.60
2017-09-11T18:51:33.785Z,88.90
2017-09-11T18:54:03.144Z,75.00
2017-09-11T18:56:29.773Z,74.60
2017-09-11T18:58:56.278Z,82.50
2017-09-11T19:01:22.714Z,81.00
2017-09-11T19:03:49.232Z,76.00
2017-09-11T19:06:15.775Z,74.40
2017-09-11T19:08:43.954Z,73.90
2017-09-11T19:11:10.277Z,79.70
2017-09-11T19:13:36.895Z,75.40
2017-09-11T19:16:07.558Z,71.10
2017-09-11T19:18:34.668Z,72.60
2017-09-11T19:21:01.623Z,72.50
2017-09-11T19:23:28.301Z,89.20
2017-09-11T19:25:54.615Z,77.00
2017-09-11T19:28:21.624Z,77.00
2017-09-11T19:30:48.451Z,76.30
2017-09-11T19:33:14.823Z,80.30
2017-09-11T19:35:41.673Z,73.70
2017-09-11T19:38:09.124Z,72.30
2017-09-11T19:40:36.549Z,71.90
2017-09-11T19:43:06.498Z,82.40
2017-09-11T19:45:32.728Z,77.30
2017-09-11T19:47:59.611Z,73.80
2017-09-11T19:50:41.559Z,72.40
2017-09-11T19:53:11.404Z,72.10
2017-09-11T19:55:37.615Z,85.10
2017-09-11T20:00:31.843Z,75.60
2017-09-11T20:02:58.065Z,73.10
2017-09-11T20:05:24.330Z,85.10
2017-09-11T20:07:53.884Z,72.50
2017-09-11T20:10:20.913Z,72.10
2017-09-11T20:12:49.005Z,72.70
2017-09-11T20:15:15.652Z,71.50
2017-09-11T20:20:12.073Z,72.00
2017-09-11T20:22:38.391Z,71.90
2017-09-11T20:25:05.359Z,71.80
2017-09-11T20:27:31.653Z,71.00
2017-09-11T20:29:58.318Z,71.40
2017-09-11T20:32:25.535Z,72.00
2017-09-11T20:34:55.214Z,71.60
2017-09-11T20:37:24.382Z,70.20
2017-09-11T20:39:50.814Z,71.10
2017-09-11T20:42:17.849Z,70.40
2017-09-11T20:44:45.083Z,70.30
2017-09-11T20:47:13.203Z,71.30
2017-09-11T20:49:40.181Z,70.30
2017-09-11T20:52:08.554Z,70.20
2017-09-11T20:54:34.865Z,69.50
2017-09-11T20:57:02.030Z,70.50
2017-09-11T20:59:28.216Z,69.30
2017-09-11T21:01:55.162Z,70.30
2017-09-11T21:04:22.147Z,69.40
2017-09-11T21:06:49.097Z,69.40
2017-09-11T21:09:16.207Z,69.90
2017-09-11T21:11:43.146Z,70.10
2017-09-11T21:14:10.063Z,70.30
2017-09-11T21:16:36.466Z,69.50
2017-09-11T21:19:05.006Z,69.40
2017-09-11T21:21:32.024Z,70.00
2017-09-11T21:23:59.553Z,70.00
2017-09-11T21:26:25.877Z,69.50
2017-09-11T21:28:52.584Z,69.50
2017-09-11T21:31:19.499Z,70.20
2017-09-11T21:33:46.874Z,70.30
2017-09-11T21:36:13.137Z,69.70
2017-09-11T21:38:40.927Z,69.70
2017-09-11T21:41:08.123Z,70.80
2017-09-11T21:43:36.072Z,70.70
2017-09-11T21:46:02.239Z,70.30
2017-09-11T21:48:28.886Z,70.60
2017-09-11T21:50:56.419Z,70.80
2017-09-11T21:53:23.244Z,70.30
2017-09-11T21:55:49.591Z,70.00
2017-09-11T21:58:17.330Z,70.20
2017-09-11T22:00:43.511Z,69.70
2017-09-11T22:03:10.427Z,70.00
2017-09-11T22:05:37.734Z,70.10
2017-09-11T22:08:03.927Z,69.50
2017-09-11T22:10:31.046Z,70.00
2017-09-11T22:12:58.859Z,69.50
2017-09-11T22:15:26.802Z,69.50
2017-09-11T22:17:53.890Z,70.10
2017-09-11T22:20:20.143Z,69.60
2017-09-11T22:22:46.321Z,69.40
2017-09-11T22:25:13.240Z,69.50
2017-09-11T22:27:40.218Z,69.50
2017-09-11T22:30:06.432Z,69.40
2017-09-11T22:32:34.219Z,69.50
2017-09-11T22:35:01.155Z,69.90
2017-09-11T22:37:28.155Z,70.00
2017-09-11T22:39:54.382Z,69.40
2017-09-11T22:42:20.577Z,79.50
2017-09-11T22:44:47.180Z,69.40
2017-09-11T22:47:13.420Z,71.80
2017-09-11T22:49:40.358Z,69.80
2017-09-11T22:52:06.577Z,70.00
2017-09-11T22:54:35.006Z,69.90
2017-09-11T22:57:01.208Z,70.00
2017-09-11T22:59:28.457Z,71.70
2017-09-11T23:01:55.381Z,70.80
2017-09-11T23:04:23.078Z,71.10
2017-09-11T23:06:50.051Z,71.20
2017-09-11T23:09:16.226Z,70.60
2017-09-11T23:11:42.474Z,71.00
2017-09-11T23:14:09.027Z,70.90
2017-09-11T23:16:37.465Z,71.50
2017-09-11T23:19:04.376Z,71.70
2017-09-11T23:21:30.612Z,71.60
2017-09-11T23:23:56.800Z,71.50
2017-09-11T23:26:24.984Z,72.10
2017-09-11T23:28:51.694Z,71.80
2017-09-11T23:31:17.883Z,71.70
2017-09-11T23:33:44.044Z,72.10
2017-09-11T23:36:10.221Z,71.80
2017-09-11T23:38:36.665Z,72.00
2017-09-11T23:41:02.855Z,71.80
2017-09-11T23:43:29.794Z,72.90
2017-09-11T23:45:56.704Z,73.00
2017-09-11T23:48:23.831Z,72.80
2017-09-11T23:50:49.994Z,72.50
2017-09-11T23:53:16.389Z,72.60
2017-09-11T23:55:42.595Z,72.90
2017-09-11T23:58:08.806Z,72.60
